Time;durP1;ratioP1;P1;durP2;ratioP2;P2;SDS_P1;SDS_P2;PMS_P1;PMS_P2;Temp;Humidity;BMP_temperature;BMP_pressure;BME280_temperature;BME280_humidity;BME280_pressure;Samples;Min_cycle;Max_cycle;Signal;HPM_P1;HPM_P2
2023/06/29 00:01:13;;;;;;;15.20;12.60;;;;;;;14.05;100.00;98936.86;272667;1260;22166;-85
2023/06/29 00:07:39;;;;;;;13.90;12.00;;;;;;;14.05;100.00;98947.40;273413;1268;22460;-85
2023/06/29 00:13:41;;;;;;;15.90;13.00;;;;;;;14.08;100.00;98947.00;272985;1257;22588;-84
2023/06/29 00:19:43;;;;;;;19.30;14.00;;;;;;;14.10;100.00;98952.17;270221;1267;22383;-86
2023/06/29 00:25:47;;;;;;;19.70;14.50;;;;;;;14.11;100.00;98948.23;270246;1267;22609;-84
2023/06/29 00:31:50;;;;;;;15.50;13.30;;;;;;;14.14;100.00;98942.97;270460;1257;22600;-84
2023/06/29 00:37:54;;;;;;;17.30;13.90;;;;;;;14.16;100.00;98935.40;272589;1267;22200;-83
2023/06/29 00:43:57;;;;;;;21.70;15.40;;;;;;;14.16;100.00;98943.19;270715;1267;25370;-83
2023/06/29 00:50:00;;;;;;;21.90;15.30;;;;;;;14.16;100.00;98942.87;270692;1267;22536;-84
2023/06/29 00:56:02;;;;;;;19.40;13.80;;;;;;;14.18;100.00;98934.60;270456;1267;22458;-83
2023/06/29 01:02:05;;;;;;;17.60;13.10;;;;;;;14.21;100.00;98930.89;271336;1256;22514;-84
2023/06/29 01:08:16;;;;;;;18.20;15.20;;;;;;;14.24;100.00;98925.45;269898;1261;22562;-83
2023/06/29 01:14:19;;;;;;;16.70;14.50;;;;;;;14.24;100.00;98923.11;269859;1260;22459;-84
2023/06/29 01:20:25;;;;;;;21.70;14.70;;;;;;;14.23;100.00;98917.52;272669;1269;22392;-84
2023/06/29 01:26:28;;;;;;;;;;;;;;;14.23;100.00;98918.61;270625;1267;22531;-83
2023/06/29 01:32:35;;;;;;;21.10;14.80;;;;;;;14.23;100.00;98919.79;270124;1254;23277;-85
2023/06/29 01:38:40;;;;;;;24.20;15.50;;;;;;;14.25;100.00;98916.42;273542;1267;22972;-83
2023/06/29 01:44:42;;;;;;;23.80;16.70;;;;;;;14.26;100.00;98918.23;274096;1257;22168;-83
2023/06/29 01:50:44;;;;;;;26.30;19.40;;;;;;;14.30;100.00;98922.39;273571;1266;22205;-84
2023/06/29 01:56:46;;;;;;;24.70;20.70;;;;;;;14.32;100.00;98922.77;273466;1261;22331;-83
2023/06/29 02:02:48;;;;;;;25.50;18.60;;;;;;;14.33;100.00;98917.48;273466;1267;22378;-83
2023/06/29 02:08:50;;;;;;;26.60;20.90;;;;;;;14.33;100.00;98918.11;273552;1269;22595;-85
2023/06/29 02:14:57;;;;;;;24.20;18.70;;;;;;;14.33;100.00;98919.39;274070;1270;22201;-83
2023/06/29 02:20:59;;;;;;;26.80;19.90;;;;;;;14.32;100.00;98925.36;273506;1267;22362;-85
2023/06/29 02:27:01;;;;;;;21.40;18.20;;;;;;;14.31;100.00;98934.97;273829;1267;22286;-83
2023/06/29 02:33:03;;;;;;;24.10;18.50;;;;;;;14.31;100.00;98941.82;272586;1269;22188;-83
2023/06/29 02:39:05;;;;;;;23.60;17.00;;;;;;;14.33;100.00;98945.73;273432;1255;23385;-84
2023/06/29 02:45:07;;;;;;;30.00;18.70;;;;;;;14.35;100.00;98953.28;273482;1257;24305;-84
2023/06/29 02:51:10;;;;;;;22.60;17.70;;;;;;;14.38;100.00;98955.16;273491;1267;22399;-84
2023/06/29 02:57:13;;;;;;;24.00;16.60;;;;;;;14.40;100.00;98958.36;273605;1253;22328;-84
2023/06/29 03:03:15;;;;;;;21.90;16.30;;;;;;;14.42;100.00;98958.29;270661;1257;23141;-84
2023/06/29 03:09:17;;;;;;;22.30;16.70;;;;;;;14.41;100.00;98955.63;273830;1267;22225;-84
2023/06/29 03:15:20;;;;;;;23.80;17.10;;;;;;;14.42;100.00;98959.72;271605;1268;22577;-84
2023/06/29 03:21:21;;;;;;;22.60;19.20;;;;;;;14.44;100.00;98965.20;269402;1268;25250;-86
2023/06/29 03:27:23;;;;;;;25.40;18.10;;;;;;;14.48;100.00;98969.27;269870;1257;22990;-84
2023/06/29 03:33:25;;;;;;;23.20;18.80;;;;;;;14.50;100.00;98976.02;271237;1268;23349;-84
2023/06/29 03:39:26;;;;;;;20.80;18.00;;;;;;;14.53;100.00;98976.65;269829;1260;24042;-84
2023/06/29 03:45:28;;;;;;;21.50;17.60;;;;;;;14.55;100.00;98984.50;270025;1257;23716;-84
2023/06/29 03:51:30;;;;;;;20.40;16.40;;;;;;;14.58;100.00;98985.59;270541;1268;22544;-84
2023/06/29 03:57:31;;;;;;;22.70;17.90;;;;;;;14.63;100.00;98982.65;270465;1253;22590;-84
2023/06/29 04:03:33;;;;;;;24.30;18.50;;;;;;;14.66;100.00;98994.68;270031;1268;22453;-84
2023/06/29 04:09:34;;;;;;;22.50;18.80;;;;;;;14.68;100.00;98998.29;273822;1262;22264;-84
2023/06/29 04:15:36;;;;;;;30.90;20.40;;;;;;;14.71;100.00;98997.96;270187;1257;22662;-82
2023/06/29 04:21:38;;;;;;;30.60;20.70;;;;;;;14.73;100.00;99001.80;269666;1254;22615;-83
2023/06/29 04:27:41;;;;;;;29.90;20.20;;;;;;;14.73;100.00;99006.29;270234;1257;22559;-83
2023/06/29 04:33:43;;;;;;;30.00;19.80;;;;;;;14.72;100.00;99014.48;270259;1263;24038;-84
2023/06/29 04:39:45;;;;;;;35.80;20.50;;;;;;;14.73;100.00;99016.60;271961;1257;22223;-87
2023/06/29 04:45:46;;;;;;;30.10;20.00;;;;;;;14.75;100.00;99011.80;271617;1268;22434;-84
2023/06/29 04:51:49;;;;;;;32.50;19.70;;;;;;;14.81;100.00;99019.01;273556;1263;22692;-85
2023/06/29 04:57:51;;;;;;;28.30;20.10;;;;;;;14.90;100.00;99017.06;272014;1254;22528;-83
2023/06/29 05:03:53;;;;;;;31.70;22.10;;;;;;;15.02;100.00;99024.40;270465;1258;23547;-84
2023/06/29 05:09:55;;;;;;;25.80;19.50;;;;;;;15.10;100.00;99027.25;270715;1267;23154;-84
2023/06/29 05:15:57;;;;;;;34.20;22.20;;;;;;;15.17;100.00;99026.73;272256;1257;25290;-84
2023/06/29 05:21:58;;;;;;;31.00;20.00;;;;;;;15.22;100.00;99030.24;271813;1257;22669;-85
2023/06/29 05:28:01;;;;;;;30.30;19.90;;;;;;;15.26;100.00;99029.58;270134;1267;23489;-83
2023/06/29 05:34:03;;;;;;;32.50;19.60;;;;;;;15.31;100.00;99029.16;270300;1257;22580;-84
2023/06/29 05:40:06;;;;;;;23.40;17.60;;;;;;;15.36;100.00;99035.89;269703;1267;22642;-84
2023/06/29 05:46:08;;;;;;;23.90;18.40;;;;;;;15.37;100.00;99039.45;269741;1268;23751;-84
2023/06/29 05:52:10;;;;;;;38.00;19.30;;;;;;;15.35;100.00;99040.63;271089;1269;22379;-84
2023/06/29 05:58:11;;;;;;;30.70;19.00;;;;;;;15.38;100.00;99046.92;271409;1269;22533;-85
2023/06/29 06:04:14;;;;;;;29.90;18.90;;;;;;;15.46;100.00;99048.39;270006;1268;22540;-82
2023/06/29 06:10:15;;;;;;;39.70;19.70;;;;;;;15.52;100.00;99047.30;270138;1267;218509;-84
2023/06/29 06:16:18;;;;;;;28.30;18.50;;;;;;;15.57;100.00;99046.64;270044;1267;22534;-84
2023/06/29 06:22:19;;;;;;;27.60;17.30;;;;;;;15.67;100.00;99048.52;270597;1253;23452;-83
2023/06/29 06:28:21;;;;;;;21.30;17.10;;;;;;;15.84;100.00;99052.56;270028;1269;22569;-83
2023/06/29 06:34:23;;;;;;;25.70;16.40;;;;;;;16.07;100.00;99050.61;270597;1267;23083;-85
2023/06/29 06:40:26;;;;;;;24.20;16.50;;;;;;;16.31;100.00;99048.54;271491;1269;22192;-83
2023/06/29 06:46:28;;;;;;;17.40;15.10;;;;;;;16.51;100.00;99045.79;272080;1267;22164;-84
2023/06/29 06:52:30;;;;;;;20.50;16.20;;;;;;;16.67;100.00;99042.30;271037;1269;22496;-84
2023/06/29 06:58:32;;;;;;;19.20;14.20;;;;;;;16.79;100.00;99040.23;271711;1268;23529;-85
2023/06/29 07:04:35;;;;;;;18.20;14.00;;;;;;;16.82;100.00;99046.45;271364;1268;25456;-84
2023/06/29 07:10:37;;;;;;;15.90;12.70;;;;;;;16.83;100.00;99039.01;270102;1257;22713;-84
2023/06/29 07:16:38;;;;;;;17.80;12.30;;;;;;;16.84;100.00;99042.15;270367;1267;23231;-83
2023/06/29 07:22:40;;;;;;;17.90;11.90;;;;;;;16.89;100.00;99045.56;270432;1252;23795;-83
2023/06/29 07:28:42;;;;;;;17.20;11.40;;;;;;;16.95;100.00;99045.24;271854;1268;22421;-85
2023/06/29 07:34:43;;;;;;;15.00;11.20;;;;;;;17.06;100.00;99045.39;273577;1257;22356;-84
2023/06/29 07:40:55;;;;;;;15.10;11.40;;;;;;;17.29;100.00;99041.98;272418;1265;24180;-83
2023/06/29 07:46:57;;;;;;;13.50;11.50;;;;;;;17.50;100.00;99043.10;270187;1267;22294;-86
2023/06/29 07:52:58;;;;;;;12.50;10.30;;;;;;;17.76;100.00;99045.85;269818;1263;22560;-84
2023/06/29 07:59:00;;;;;;;10.80;9.40;;;;;;;17.98;100.00;99051.23;270694;1261;22361;-83
2023/06/29 08:05:02;;;;;;;20.10;10.60;;;;;;;18.11;100.00;99054.01;273534;1267;23732;-82
2023/06/29 08:11:04;;;;;;;12.90;10.50;;;;;;;18.10;100.00;99051.02;273429;1268;22678;-83
2023/06/29 08:17:07;;;;;;;15.00;10.50;;;;;;;18.30;100.00;99045.66;273983;1269;22814;-83
2023/06/29 08:23:09;;;;;;;13.00;10.30;;;;;;;18.49;100.00;99040.70;273433;1261;22380;-84
2023/06/29 08:29:10;;;;;;;10.00;8.90;;;;;;;18.73;100.00;99038.80;273384;1267;22527;-83
2023/06/29 08:35:12;;;;;;;9.70;8.40;;;;;;;19.08;100.00;99039.08;273382;1258;22410;-84
2023/06/29 08:41:15;;;;;;;16.00;9.00;;;;;;;19.19;100.00;99044.38;273372;1267;23529;-84
2023/06/29 08:47:18;;;;;;;12.20;9.00;;;;;;;19.36;100.00;99043.13;273288;1258;22192;-84
2023/06/29 08:53:21;;;;;;;13.20;9.00;;;;;;;19.72;100.00;99041.70;273261;1268;22431;-84
2023/06/29 08:59:23;;;;;;;12.40;9.70;;;;;;;19.86;100.00;99041.17;273372;1268;23012;-86
2023/06/29 09:05:25;;;;;;;12.60;10.60;;;;;;;19.75;100.00;99046.40;273311;1261;23594;-84
2023/06/29 09:11:27;;;;;;;12.20;10.50;;;;;;;19.69;100.00;99044.63;273506;1267;22149;-84
2023/06/29 09:17:44;;;;;;;12.20;9.90;;;;;;;19.98;100.00;99048.42;273474;1257;22336;-86
2023/06/29 09:23:46;;;;;;;11.50;10.20;;;;;;;19.98;100.00;99049.60;271009;1268;22470;-85
2023/06/29 09:29:52;;;;;;;13.90;11.30;;;;;;;19.76;100.00;99049.08;272005;1264;22406;-84
2023/06/29 09:35:54;;;;;;;12.30;10.80;;;;;;;19.99;100.00;99047.98;272723;1268;22366;-84
2023/06/29 09:41:56;;;;;;;10.20;9.20;;;;;;;20.64;100.00;99043.06;271010;1266;22541;-84
2023/06/29 09:47:58;;;;;;;12.10;8.20;;;;;;;21.19;99.00;99048.27;269845;1256;22542;-84
2023/06/29 09:54:04;;;;;;;9.70;8.60;;;;;;;21.10;96.74;99053.09;271850;1268;22326;-86
2023/06/29 10:00:11;;;;;;;12.00;9.00;;;;;;;21.52;97.65;99049.16;273185;1267;22380;-86
2023/06/29 10:06:19;;;;;;;11.80;9.10;;;;;;;22.04;97.09;99045.83;273056;1261;24012;-85
2023/06/29 10:12:23;;;;;;;9.80;8.50;;;;;;;22.37;95.02;99042.14;269768;1268;23119;-86
2023/06/29 10:18:29;;;;;;;13.50;9.60;;;;;;;22.86;93.45;99027.40;269746;1260;22555;-86
2023/06/29 10:24:35;;;;;;;11.70;9.90;;;;;;;23.44;91.95;99021.98;270718;1267;22516;-86
2023/06/29 10:30:45;;;;;;;;;;;;;;;23.48;88.32;99028.39;270226;1268;22475;-87
2023/06/29 10:36:49;;;;;;;10.20;9.20;;;;;;;23.21;87.99;99027.46;273598;1268;22297;-86
2023/06/29 10:42:52;;;;;;;14.70;9.30;;;;;;;23.45;88.73;99022.67;273671;1267;22160;-85
2023/06/29 10:49:00;;;;;;;13.10;9.60;;;;;;;23.82;87.86;99018.92;272368;1260;22236;-85
2023/06/29 10:55:19;;;;;;;11.80;9.00;;;;;;;24.21;86.10;99012.69;269500;1256;25451;-86
2023/06/29 11:01:21;;;;;;;10.00;8.20;;;;;;;24.31;84.44;99014.34;269781;1266;22534;-85
2023/06/29 11:07:23;;;;;;;8.50;7.40;;;;;;;24.49;83.36;99014.41;273614;1267;22336;-86
2023/06/29 11:13:24;;;;;;;11.80;8.00;;;;;;;24.80;82.28;99011.73;274191;1274;22971;-87
2023/06/29 11:19:27;;;;;;;7.10;6.40;;;;;;;24.98;80.43;99005.14;271609;1268;22675;-85
2023/06/29 11:25:32;;;;;;;7.60;6.80;;;;;;;25.18;79.12;99002.65;269614;1266;22556;-86
2023/06/29 11:31:34;;;;;;;7.80;7.00;;;;;;;25.46;77.28;99002.92;270032;1267;22985;-87
2023/06/29 11:37:37;;;;;;;7.20;6.00;;;;;;;25.78;75.89;98995.08;269733;1258;25266;-87
2023/06/29 11:43:39;;;;;;;7.50;4.90;;;;;;;25.76;73.85;98993.16;270416;1266;23121;-87
2023/06/29 11:49:40;;;;;;;7.90;6.40;;;;;;;25.42;71.71;98995.34;272708;1256;24081;-87
2023/06/29 11:55:53;;;;;;;7.10;5.60;;;;;;;24.84;71.71;98989.47;269346;1255;23496;-88
2023/06/29 12:01:55;;;;;;;7.00;5.70;;;;;;;24.53;72.53;98980.88;269497;1257;24391;-86
2023/06/29 12:08:05;;;;;;;5.80;5.10;;;;;;;24.40;71.82;98970.23;269372;1269;22416;-88
2023/06/29 12:14:10;;;;;;;5.70;5.10;;;;;;;24.53;72.30;98962.95;272206;1267;23058;-87
2023/06/29 12:20:23;;;;;;;8.00;5.30;;;;;;;24.57;71.38;98956.79;270555;1268;22411;-87
2023/06/29 12:26:25;;;;;;;7.20;4.90;;;;;;;24.36;70.41;98954.25;270183;1267;22546;-86
2023/06/29 12:32:27;;;;;;;5.70;5.10;;;;;;;24.03;68.96;98945.79;270603;1267;23028;-87
2023/06/29 12:38:29;;;;;;;4.80;4.20;;;;;;;23.84;68.59;98938.55;269478;1268;26525;-87
2023/06/29 12:44:32;;;;;;;8.30;4.60;;;;;;;23.83;68.11;98931.61;271092;1255;23965;-86
2023/06/29 12:50:34;;;;;;;4.40;4.00;;;;;;;23.86;67.94;98932.25;271322;1257;22756;-86
2023/06/29 12:56:35;;;;;;;4.80;3.60;;;;;;;23.84;66.50;98925.01;272690;1269;22530;-85
2023/06/29 13:02:37;;;;;;;5.70;3.70;;;;;;;23.81;65.82;98917.27;269598;1258;22534;-85
2023/06/29 13:08:39;;;;;;;4.40;3.80;;;;;;;23.75;65.54;98910.34;270263;1263;22655;-87
2023/06/29 13:14:42;;;;;;;5.30;4.10;;;;;;;23.84;65.65;98900.73;269885;1269;22188;-87
2023/06/29 13:20:43;;;;;;;7.70;3.70;;;;;;;23.86;65.03;98893.98;271025;1257;23802;-87
2023/06/29 13:26:50;;;;;;;5.00;3.80;;;;;;;23.72;64.77;98896.12;273620;1268;22437;-86
2023/06/29 13:32:51;;;;;;;4.80;4.20;;;;;;;23.65;65.21;98892.20;271579;1268;22570;-87
2023/06/29 13:38:53;;;;;;;4.20;3.80;;;;;;;23.61;65.53;98892.11;270773;1269;22209;-88
2023/06/29 13:45:00;;;;;;;4.60;3.90;;;;;;;23.63;64.56;98885.95;270790;1268;23636;-87
2023/06/29 13:51:01;;;;;;;4.00;3.60;;;;;;;23.57;63.91;98877.10;270427;1268;22544;-87
2023/06/29 13:57:09;;;;;;;4.50;3.20;;;;;;;23.58;64.21;98872.95;270603;1267;22542;-87
2023/06/29 14:03:36;;;;;;;4.90;4.00;;;;;;;23.62;64.41;98873.95;270874;1269;22375;-88
2023/06/29 14:09:52;;;;;;;4.30;3.80;;;;;;;23.65;63.99;98866.72;274101;1260;22299;-89
2023/06/29 14:15:58;;;;;;;6.20;4.20;;;;;;;23.68;64.70;98859.25;273311;1266;25476;-87
2023/06/29 14:22:00;;;;;;;7.20;3.80;;;;;;;23.73;63.11;98855.66;271706;1268;24231;-89
2023/06/29 14:28:03;;;;;;;3.60;3.30;;;;;;;23.69;62.78;98848.58;271118;1256;22181;-89
2023/06/29 14:34:04;;;;;;;5.10;3.80;;;;;;;23.72;63.19;98847.55;271284;1264;23318;-89
2023/06/29 14:40:07;;;;;;;4.10;3.70;;;;;;;23.69;63.03;98844.17;272647;1268;22824;-87
2023/06/29 14:46:09;;;;;;;4.30;3.90;;;;;;;23.58;62.40;98836.30;273507;1269;24397;-88
2023/06/29 14:52:11;;;;;;;4.90;4.40;;;;;;;23.55;62.83;98832.52;272854;1269;22152;-88
2023/06/29 14:58:13;;;;;;;5.50;4.00;;;;;;;23.54;63.27;98830.02;273259;1263;22163;-88
2023/06/29 15:04:15;;;;;;;5.60;4.20;;;;;;;23.58;63.49;98829.33;273861;1271;22193;-89
2023/06/29 15:10:17;;;;;;;4.40;3.90;;;;;;;23.62;63.29;98820.98;270521;1260;23425;-89
2023/06/29 15:16:19;;;;;;;4.90;3.90;;;;;;;23.62;64.08;98819.42;270371;1268;24243;-87
2023/06/29 15:22:21;;;;;;;6.60;4.60;;;;;;;23.58;63.23;98818.81;270690;1269;22530;-89
2023/06/29 15:28:42;;;;;;;6.80;4.40;;;;;;;23.52;63.48;98809.96;269964;1269;22585;-88
2023/06/29 15:34:44;;;;;;;6.10;4.50;;;;;;;23.45;64.16;98808.70;273249;1270;22189;-86
2023/06/29 15:41:14;;;;;;;6.20;4.50;;;;;;;23.36;65.04;98807.23;273136;1270;22300;-88
2023/06/29 15:47:18;;;;;;;6.40;4.30;;;;;;;23.31;64.33;98804.77;272533;1267;25723;-87
2023/06/29 15:53:20;;;;;;;4.60;3.80;;;;;;;23.25;63.61;98791.59;270733;1269;22953;-87
2023/06/29 15:59:47;;;;;;;7.50;4.20;;;;;;;23.19;63.11;98790.23;271392;1266;23032;-87
2023/06/29 16:05:49;;;;;;;5.80;3.90;;;;;;;23.12;62.72;98781.99;269807;1268;22749;-88
2023/06/29 16:11:51;;;;;;;4.90;4.00;;;;;;;23.06;63.47;98775.55;270383;1267;22526;-87
2023/06/29 16:17:55;;;;;;;5.10;4.10;;;;;;;22.99;63.56;98774.34;270153;1267;22672;-88
2023/06/29 16:24:06;;;;;;;5.60;4.00;;;;;;;22.96;63.39;98767.60;271394;1268;22659;-89
2023/06/29 16:30:09;;;;;;;4.80;4.10;;;;;;;22.90;64.59;98767.80;271776;1268;22348;-88
2023/06/29 16:36:10;;;;;;;5.60;4.20;;;;;;;22.79;64.83;98764.19;270063;1265;24505;-89
2023/06/29 16:42:12;;;;;;;9.00;4.10;;;;;;;22.72;65.12;98763.83;269897;1267;22747;-88
2023/06/29 16:48:14;;;;;;;6.40;4.10;;;;;;;22.64;64.40;98758.76;270065;1269;22840;-88
2023/06/29 16:54:16;;;;;;;4.20;3.70;;;;;;;22.59;63.99;98759.61;271129;1267;22182;-86
2023/06/29 17:00:18;;;;;;;5.00;4.00;;;;;;;22.55;64.39;98757.30;270758;1269;22180;-88
2023/06/29 17:06:21;;;;;;;6.20;4.10;;;;;;;22.46;65.20;98753.96;271634;1269;23494;-88
2023/06/29 17:12:43;;;;;;;5.10;3.80;;;;;;;22.36;65.86;98754.45;270134;1269;22449;-88
2023/06/29 17:18:44;;;;;;;6.20;3.90;;;;;;;22.27;66.41;98752.03;270491;1269;23243;-87
2023/06/29 17:24:46;;;;;;;6.90;4.30;;;;;;;22.13;66.56;98754.98;270224;1269;22524;-88
2023/06/29 17:30:48;;;;;;;11.60;3.90;;;;;;;22.02;67.04;98755.98;272796;1269;23516;-88
2023/06/29 17:36:52;;;;;;;4.30;3.90;;;;;;;21.90;67.16;98752.05;270465;1269;23349;-88
2023/06/29 17:42:56;;;;;;;5.50;3.50;;;;;;;21.80;67.09;98752.86;270880;1268;22372;-88
2023/06/29 17:49:01;;;;;;;8.00;3.70;;;;;;;21.72;67.21;98748.33;265500;1269;10001634;-88
2023/06/29 17:55:04;;;;;;;7.80;3.80;;;;;;;21.65;67.10;98746.36;273532;1270;22964;-86
2023/06/29 18:01:09;;;;;;;7.90;4.10;;;;;;;21.57;67.22;98742.37;273461;1269;22193;-85
2023/06/29 18:07:11;;;;;;;5.50;3.90;;;;;;;21.50;67.36;98741.37;272106;1269;23321;-88
2023/06/29 18:13:12;;;;;;;6.50;3.90;;;;;;;21.43;67.49;98743.92;270916;1269;161500;-87
2023/06/29 18:19:14;;;;;;;13.00;5.20;;;;;;;21.33;67.66;98739.73;271202;1269;23882;-88
2023/06/29 18:25:16;;;;;;;9.80;4.50;;;;;;;21.23;67.73;98744.02;270839;1269;22324;-89
2023/06/29 18:31:37;;;;;;;8.40;4.50;;;;;;;21.16;67.90;98741.56;271218;1260;22323;-88
2023/06/29 18:37:44;;;;;;;7.10;4.40;;;;;;;21.07;68.22;98745.21;271829;1269;22552;-87
2023/06/29 18:43:46;;;;;;;6.50;4.30;;;;;;;20.94;68.72;98747.66;272470;1269;22195;-87
2023/06/29 18:49:48;;;;;;;7.20;4.60;;;;;;;20.79;69.54;98749.77;273358;1269;22451;-87
2023/06/29 18:55:53;;;;;;;7.20;4.80;;;;;;;20.64;69.85;98752.95;272689;1269;22558;-87
2023/06/29 19:02:06;;;;;;;5.80;4.60;;;;;;;20.47;70.49;98751.84;272218;1269;22194;-87
2023/06/29 19:08:30;;;;;;;8.30;4.50;;;;;;;20.28;71.20;98761.28;273427;1268;22643;-86
2023/06/29 19:14:38;;;;;;;5.60;4.50;;;;;;;20.05;72.66;98765.30;273949;1275;22193;-86
2023/06/29 19:20:40;;;;;;;7.90;4.70;;;;;;;19.82;73.16;98762.73;273230;1268;22216;-87
2023/06/29 19:27:05;;;;;;;10.60;5.70;;;;;;;19.67;74.02;98762.53;273818;1268;22203;-87
2023/06/29 19:33:10;;;;;;;6.50;5.70;;;;;;;19.53;74.82;98762.41;272781;1268;22205;-87
2023/06/29 19:39:12;;;;;;;10.30;6.60;;;;;;;19.36;75.77;98767.16;274057;1274;23440;-87
2023/06/29 19:45:14;;;;;;;8.30;5.90;;;;;;;19.21;76.33;98772.06;271777;1257;24218;-87
2023/06/29 19:51:27;;;;;;;8.70;5.60;;;;;;;19.07;76.72;98774.74;272135;1268;23746;-87
2023/06/29 19:57:29;;;;;;;9.00;6.50;;;;;;;18.89;77.98;98779.58;270253;1267;22527;-88
2023/06/29 20:03:31;;;;;;;9.10;6.60;;;;;;;18.70;77.91;98787.52;270463;1267;22483;-87
2023/06/29 20:09:34;;;;;;;9.30;5.80;;;;;;;18.53;78.80;98792.59;272421;1268;22186;-87
2023/06/29 20:15:38;;;;;;;8.00;6.70;;;;;;;18.35;79.09;98795.77;273807;1257;22350;-87
2023/06/29 20:21:40;;;;;;;9.40;6.40;;;;;;;18.16;79.50;98793.90;271465;1268;22350;-87
2023/06/29 20:27:41;;;;;;;18.00;10.70;;;;;;;17.96;80.14;98797.11;270962;1260;22577;-86
2023/06/29 20:33:44;;;;;;;15.20;7.50;;;;;;;17.78;80.85;98798.92;270646;1257;22344;-87
2023/06/29 20:39:45;;;;;;;10.40;7.70;;;;;;;17.59;82.29;98802.17;272743;1268;22534;-88
2023/06/29 20:45:48;;;;;;;12.80;8.60;;;;;;;17.45;82.74;98800.77;272627;1268;22542;-87
2023/06/29 20:52:15;;;;;;;16.00;8.70;;;;;;;17.29;83.75;98797.98;273817;1268;22206;-85
2023/06/29 20:58:16;;;;;;;11.70;8.40;;;;;;;17.10;84.75;98794.93;271942;1268;22637;-88
2023/06/29 21:04:43;;;;;;;10.00;8.60;;;;;;;16.99;85.03;98789.36;270740;1268;27352;-85
2023/06/29 21:10:45;;;;;;;12.10;8.40;;;;;;;16.82;86.16;98790.84;273418;1268;25242;-88
2023/06/29 21:16:47;;;;;;;11.00;7.90;;;;;;;16.65;86.71;98791.77;272665;1268;22260;-88
2023/06/29 21:22:54;;;;;;;11.70;7.10;;;;;;;16.49;87.37;98790.83;273805;1262;22379;-87
2023/06/29 21:29:16;;;;;;;13.70;8.70;;;;;;;16.37;87.89;98791.87;273759;1268;22795;-87
2023/06/29 21:35:18;;;;;;;10.70;8.20;;;;;;;16.27;88.16;98790.36;272190;1258;24215;-87
2023/06/29 21:41:22;;;;;;;11.50;8.00;;;;;;;16.14;88.83;98787.64;269987;1268;22190;-86
2023/06/29 21:47:24;;;;;;;11.10;7.90;;;;;;;16.17;90.25;98791.39;272374;1268;23112;-86
2023/06/29 21:53:26;;;;;;;11.60;8.50;;;;;;;16.15;90.70;98790.30;269892;1268;22565;-85
2023/06/29 21:59:30;;;;;;;12.00;8.50;;;;;;;16.12;91.25;98787.81;271194;1268;24510;-86
2023/06/29 22:05:32;;;;;;;12.70;8.80;;;;;;;16.06;91.94;98788.38;269813;1268;23175;-86
2023/06/29 22:11:38;;;;;;;11.60;8.60;;;;;;;16.01;92.48;98792.86;270866;1262;22550;-86
2023/06/29 22:17:42;;;;;;;11.50;9.10;;;;;;;15.98;93.09;98794.64;271024;1267;22547;-86
2023/06/29 22:23:44;;;;;;;13.40;8.70;;;;;;;15.92;93.48;98794.90;273213;1267;22344;-86
2023/06/29 22:30:12;;;;;;;10.70;8.40;;;;;;;15.85;94.07;98794.27;274132;1271;23071;-86
2023/06/29 22:36:43;;;;;;;12.30;9.40;;;;;;;15.80;94.67;98791.02;272970;1268;22287;-86
2023/06/29 22:42:45;;;;;;;;;;;;;;;15.77;94.85;98788.31;270966;1268;22544;-87
2023/06/29 22:48:47;;;;;;;11.20;8.10;;;;;;;15.73;95.43;98785.75;273661;1255;25408;-87
2023/06/29 22:54:49;;;;;;;16.30;10.10;;;;;;;15.66;95.81;98791.59;270955;1268;23431;-86
2023/06/29 23:00:52;;;;;;;14.10;10.20;;;;;;;15.58;96.06;98789.89;272190;1264;22222;-86
2023/06/29 23:06:54;;;;;;;13.70;9.80;;;;;;;15.53;96.45;98784.81;272034;1268;22557;-86
2023/06/29 23:12:57;;;;;;;12.10;9.80;;;;;;;15.47;96.99;98785.36;269913;1268;22597;-86
2023/06/29 23:19:02;;;;;;;12.70;9.90;;;;;;;15.39;97.30;98780.01;270127;1268;22593;-86
2023/06/29 23:25:06;;;;;;;12.20;10.00;;;;;;;15.28;97.15;98778.84;271200;1268;22244;-87
2023/06/29 23:31:08;;;;;;;13.70;8.40;;;;;;;15.25;98.09;98770.99;273611;1270;23054;-86
2023/06/29 23:37:37;;;;;;;10.40;9.30;;;;;;;15.20;98.06;98776.18;273740;1271;23446;-87
2023/06/29 23:43:43;;;;;;;13.90;10.00;;;;;;;15.15;98.75;98774.81;272751;1268;23399;-86
2023/06/29 23:50:38;;;;;;;11.90;9.50;;;;;;;15.19;99.36;98768.88;273930;1270;22254;-86
2023/06/29 23:56:40;;;;;;;13.60;9.90;;;;;;;15.21;99.64;98761.05;273764;1268;22190;-86
